Tisul, Russia
Current Conditions -  °F | °C
As of 10:00 AM on Thursday 23 Oct 2014 (Local Time) from UNEE Reporting Station
Snow Showers Snow Showers  
Wind Chill: -3°   Ceiling: 1400
Heat Index:   Visibility: 6mi
Dew Point:   Wind: 9mph
Humidity: 100%   Direction: 220°SW
Pressure: 29.91"   Gusts: NA
Location:  55.76°N, 88.31°E
Report Text: UNEE 230300Z 22004MPS 9999 -SHSN OVC014CB 01/01 Q1013 NOSIG RMKQFE737 23491040
Loading
Personal Weather Stations






























Interactive Weather Map
Tropical Storm Tracking
New forecast layout! Learn more

10-Day Weather Forecast

Advertisements
Track Severe Weather on mobile